Time;durP1;ratioP1;P1;durP2;ratioP2;P2;SDS_P1;SDS_P2;PMS_P1;PMS_P2;Temp;Humidity;BMP_temperature;BMP_pressure;BME280_temperature;BME280_humidity;BME280_pressure;Samples;Min_cycle;Max_cycle;Signal;HPM_P1;HPM_P2
2022/10/06 00:00:51;;;;;;;12.73;1.63;;;;;;;;;;5068879;28;20201;-59
2022/10/06 00:03:19;;;;;;;12.37;2.00;;;11.30;99.90;;;;;;5058319;28;20245;-59
2022/10/06 00:05:44;;;;;;;16.40;2.00;;;11.50;99.90;;;;;;5068309;28;20679;-59
2022/10/06 00:08:10;;;;;;;11.00;1.73;;;11.60;99.90;;;;;;5073581;28;20299;-59
2022/10/06 00:10:36;;;;;;;15.30;1.97;;;11.50;99.90;;;;;;5073260;28;20206;-60
2022/10/06 00:13:02;;;;;;;14.70;1.50;;;11.30;99.90;;;;;;5065988;28;20633;-59
2022/10/06 00:15:30;;;;;;;20.50;2.27;;;11.30;99.90;;;;;;5053312;28;20208;-59
2022/10/06 00:17:57;;;;;;;12.80;1.47;;;11.00;99.90;;;;;;5067439;28;20184;-60
2022/10/06 00:20:24;;;;;;;10.97;1.87;;;11.40;99.90;;;;;;5068707;28;20186;-59
2022/10/06 00:22:50;;;;;;;7.90;1.97;;;11.30;99.90;;;;;;5066542;28;20635;-60
2022/10/06 00:25:21;;;;;;;11.00;1.87;;;11.40;99.90;;;;;;5071021;28;20180;-59
2022/10/06 00:27:49;;;;;;;12.57;1.37;;;11.20;99.90;;;;;;5071503;28;20235;-59
2022/10/06 00:30:22;;;;;;;7.97;1.50;;;11.30;99.90;;;;;;5072877;28;20172;-59
2022/10/06 00:32:56;;;;;;;22.63;2.27;;;11.40;99.90;;;;;;5072876;28;20194;-59
2022/10/06 00:35:24;;;;;;;12.93;1.90;;;11.10;99.90;;;;;;5072992;28;20181;-59
2022/10/06 00:37:50;;;;;;;13.50;2.23;;;;;;;;;;5062801;28;20636;-59
2022/10/06 00:40:16;;;;;;;21.63;2.03;;;11.30;99.90;;;;;;5052501;28;20177;-59
2022/10/06 00:42:49;;;;;;;18.03;2.20;;;11.60;99.90;;;;;;5067068;28;20176;-59
2022/10/06 00:45:17;;;;;;;14.00;2.20;;;11.20;99.90;;;;;;5072184;28;20263;-59
2022/10/06 00:47:43;;;;;;;20.23;2.77;;;;;;;;;;5072484;28;20728;-57
2022/10/06 00:50:11;;;;;;;19.47;2.17;;;11.30;99.90;;;;;;5065164;28;20161;-57
2022/10/06 00:52:38;;;;;;;13.97;1.83;;;11.20;99.90;;;;;;5063246;28;20179;-57
2022/10/06 00:55:08;;;;;;;10.80;1.70;;;11.20;99.90;;;;;;5072491;28;20199;-57
2022/10/06 00:57:36;;;;;;;12.73;2.33;;;11.10;99.90;;;;;;5058781;28;20173;-57
2022/10/06 01:00:04;;;;;;;11.23;1.80;;;11.10;99.90;;;;;;5059164;28;20276;-58
2022/10/06 01:02:37;;;;;;;10.07;1.97;;;11.00;99.90;;;;;;5072566;28;20642;-57
2022/10/06 01:05:05;;;;;;;9.57;1.63;;;11.20;99.90;;;;;;5058909;28;20176;-57
2022/10/06 01:07:31;;;;;;;15.93;2.40;;;11.50;99.90;;;;;;5072149;28;20204;-57
2022/10/06 01:09:57;;;;;;;18.50;2.80;;;11.00;99.90;;;;;;5071328;28;20681;-57
2022/10/06 01:12:26;;;;;;;16.70;2.37;;;11.10;99.90;;;;;;5071818;28;20737;-57
2022/10/06 01:14:52;;;;;;;16.37;2.27;;;11.40;99.90;;;;;;5072289;28;20184;-57
2022/10/06 01:17:42;;;;;;;16.00;2.67;;;11.30;99.90;;;;;;5057907;28;20264;-58
2022/10/06 01:20:11;;;;;;;15.63;2.37;;;11.20;99.90;;;;;;5059282;28;20224;-57
2022/10/06 01:22:38;;;;;;;19.70;2.80;;;11.00;99.90;;;;;;5063577;28;20204;-58
2022/10/06 01:25:06;;;;;;;16.67;2.67;;;11.30;99.90;;;;;;5071521;28;20179;-58
2022/10/06 01:27:35;;;;;;;17.90;2.97;;;11.30;99.90;;;;;;5062175;28;20702;-58
2022/10/06 01:30:01;;;;;;;18.23;2.33;;;;;;;;;;5070167;28;20207;-58
2022/10/06 01:32:32;;;;;;;13.10;2.37;;;11.30;99.90;;;;;;5070666;28;20223;-59
2022/10/06 01:34:58;;;;;;;17.40;2.47;;;11.10;99.90;;;;;;5061170;28;20173;-59
2022/10/06 01:37:24;;;;;;;14.00;2.60;;;;;;;;;;5051879;28;20524;-58
2022/10/06 01:39:49;;;;;;;19.07;2.97;;;11.40;99.90;;;;;;5056327;28;20652;-59
2022/10/06 01:42:15;;;;;;;25.40;2.63;;;11.30;99.90;;;;;;5062051;28;20183;-58
2022/10/06 01:44:40;;;;;;;18.17;2.77;;;11.20;99.90;;;;;;5071169;28;20192;-59
2022/10/06 01:47:07;;;;;;;18.93;2.47;;;11.30;99.90;;;;;;5070913;28;20191;-58
2022/10/06 01:49:33;;;;;;;12.47;2.50;;;11.20;99.90;;;;;;5071235;28;20177;-58
2022/10/06 01:51:59;;;;;;;27.97;2.97;;;11.20;99.90;;;;;;5069596;28;20173;-59
2022/10/06 01:54:24;;;;;;;17.23;2.83;;;11.30;99.90;;;;;;5053051;28;20184;-58
2022/10/06 01:56:50;;;;;;;15.97;2.77;;;;;;;;;;5071044;28;20706;-59
2022/10/06 01:59:16;;;;;;;19.63;3.30;;;;;;;;;;5069788;28;20647;-57
2022/10/06 02:01:42;;;;;;;15.20;3.00;;;11.40;99.90;;;;;;5064727;28;20191;-57
2022/10/06 02:04:08;;;;;;;26.57;3.20;;;11.60;99.90;;;;;;5064542;28;20634;-57
2022/10/06 02:06:33;;;;;;;20.57;2.90;;;11.60;99.90;;;;;;5053499;28;20283;-57
2022/10/06 02:09:02;;;;;;;21.77;3.63;;;11.10;99.90;;;;;;5057097;28;20213;-57
2022/10/06 02:11:28;;;;;;;17.63;3.63;;;11.40;99.90;;;;;;5050780;28;20181;-57
2022/10/06 02:13:54;;;;;;;18.23;2.93;;;11.40;99.90;;;;;;5059234;28;20559;-58
2022/10/06 02:16:20;;;;;;;19.07;3.10;;;;;;;;;;5055969;28;20177;-58
2022/10/06 02:18:46;;;;;;;16.27;3.03;;;11.20;99.90;;;;;;5067117;28;20177;-57
2022/10/06 02:21:18;;;;;;;16.07;2.93;;;11.10;99.90;;;;;;5060036;28;20514;-57
2022/10/06 02:23:44;;;;;;;19.00;2.90;;;11.20;99.90;;;;;;5070901;28;20271;-57
2022/10/06 02:26:11;;;;;;;23.07;4.13;;;10.90;99.90;;;;;;5062177;28;20295;-57
2022/10/06 02:28:37;;;;;;;22.13;3.87;;;10.80;99.90;;;;;;5062847;28;20223;-57
2022/10/06 02:31:05;;;;;;;18.50;3.03;;;10.80;99.90;;;;;;5070428;28;20165;-57
2022/10/06 02:33:31;;;;;;;26.40;3.07;;;10.70;99.90;;;;;;5056213;28;20180;-57
2022/10/06 02:35:57;;;;;;;18.23;3.07;;;10.60;99.90;;;;;;5070838;28;20259;-57
2022/10/06 02:38:23;;;;;;;21.10;3.20;;;;;;;;;;5064182;28;20185;-57
2022/10/06 02:40:49;;;;;;;27.23;3.83;;;10.60;99.90;;;;;;5050873;28;20242;-57
2022/10/06 02:43:15;;;;;;;23.60;3.73;;;10.50;99.90;;;;;;5069909;28;20661;-58
2022/10/06 02:45:42;;;;;;;23.27;3.40;;;;;;;;;;5070511;28;20184;-58
2022/10/06 02:48:10;;;;;;;18.37;3.30;;;10.20;99.90;;;;;;5070423;28;20243;-57
2022/10/06 02:50:37;;;;;;;16.53;3.57;;;10.20;99.90;;;;;;5070365;28;20313;-57
2022/10/06 02:53:07;;;;;;;24.43;3.37;;;;;;;;;;5070368;28;20180;-57
2022/10/06 02:55:34;;;;;;;15.00;3.40;;;10.10;99.90;;;;;;5070660;28;20176;-57
2022/10/06 02:58:00;;;;;;;27.17;3.00;;;10.10;99.90;;;;;;5070789;28;20180;-57
2022/10/06 03:00:25;;;;;;;23.00;3.17;;;9.90;99.90;;;;;;5069895;28;20267;-57
2022/10/06 03:02:52;;;;;;;11.90;2.57;;;10.20;99.90;;;;;;5070630;28;20173;-57
2022/10/06 03:05:18;;;;;;;14.93;3.10;;;10.00;99.90;;;;;;5070523;28;20622;-57
2022/10/06 03:07:44;;;;;;;19.63;3.20;;;10.10;99.90;;;;;;5069098;28;20196;-57
2022/10/06 03:10:10;;;;;;;18.23;3.20;;;9.50;99.90;;;;;;5059542;28;20647;-58
2022/10/06 03:12:36;;;;;;;20.43;3.63;;;;;;;;;;5070270;28;20762;-57
2022/10/06 03:15:02;;;;;;;16.63;3.20;;;9.80;99.90;;;;;;5070626;28;20650;-57
2022/10/06 03:17:28;;;;;;;17.53;2.90;;;9.80;99.90;;;;;;5059498;28;20263;-57
2022/10/06 03:19:55;;;;;;;26.33;3.10;;;9.70;99.90;;;;;;5063152;28;20183;-57
2022/10/06 03:22:21;;;;;;;20.57;3.17;;;9.70;99.90;;;;;;5065224;28;20267;-58
2022/10/06 03:24:47;;;;;;;14.03;2.73;;;9.50;99.90;;;;;;5072834;28;20256;-59
2022/10/06 03:27:12;;;;;;;14.63;2.97;;;9.10;99.90;;;;;;5073310;28;20173;-59
2022/10/06 03:29:38;;;;;;;23.33;3.07;;;9.50;99.90;;;;;;5073503;28;20198;-58
2022/10/06 03:32:04;;;;;;;23.20;3.50;;;9.40;99.90;;;;;;5073731;28;20180;-59
2022/10/06 03:34:29;;;;;;;17.40;3.40;;;9.30;99.90;;;;;;5073970;28;20177;-58
2022/10/06 03:36:55;;;;;;;17.90;3.17;;;9.40;99.90;;;;;;5074307;28;20268;-58
2022/10/06 03:39:20;;;;;;;20.80;3.00;;;9.30;99.90;;;;;;5060146;28;20184;-58
2022/10/06 03:41:46;;;;;;;26.20;2.97;;;9.50;99.90;;;;;;5053461;28;20169;-59
2022/10/06 03:44:12;;;;;;;23.17;3.40;;;9.60;99.90;;;;;;5057542;28;20177;-58
2022/10/06 03:46:37;;;;;;;22.10;2.83;;;9.20;99.90;;;;;;5073537;28;20238;-58
2022/10/06 03:49:04;;;;;;;18.23;3.43;;;9.30;99.90;;;;;;5073572;28;20299;-58
2022/10/06 03:51:32;;;;;;;14.77;3.20;;;9.00;99.90;;;;;;5071056;28;20180;-58
2022/10/06 03:53:59;;;;;;;15.77;2.93;;;9.20;99.90;;;;;;5072786;28;20267;-58
2022/10/06 03:56:24;;;;;;;15.90;3.00;;;9.20;99.90;;;;;;5073264;28;20698;-58
2022/10/06 03:58:52;;;;;;;20.00;3.30;;;9.10;99.90;;;;;;5071413;28;20256;-58
2022/10/06 04:01:26;;;;;;;16.80;3.00;;;9.00;99.90;;;;;;5067732;28;20227;-58
2022/10/06 04:03:54;;;;;;;31.17;3.10;;;9.20;99.90;;;;;;5053233;28;20244;-58
2022/10/06 04:06:20;;;;;;;13.23;2.83;;;;;;;;;;5053313;28;20560;-58
2022/10/06 04:08:48;;;;;;;22.17;3.07;;;9.20;99.90;;;;;;5067146;28;20220;-58
2022/10/06 04:11:25;;;;;;;17.80;3.43;;;9.10;99.90;;;;;;5073060;28;20207;-57
2022/10/06 04:13:53;;;;;;;32.97;4.23;;;8.90;99.90;;;;;;5063375;28;20196;-58
2022/10/06 04:16:22;;;;;;;17.87;2.87;;;9.10;99.90;;;;;;5071957;28;20164;-58
2022/10/06 04:18:49;;;;;;;13.93;2.87;;;8.90;99.90;;;;;;5072953;28;20187;-58
2022/10/06 04:21:15;;;;;;;20.90;3.00;;;9.00;99.90;;;;;;5070688;28;20180;-58
2022/10/06 04:23:41;;;;;;;21.70;3.77;;;9.20;99.90;;;;;;5072714;28;20177;-58
2022/10/06 04:26:11;;;;;;;17.03;3.23;;;9.40;99.90;;;;;;5068557;28;20688;-58
2022/10/06 04:28:38;;;;;;;17.60;2.70;;;9.10;99.90;;;;;;5072835;28;20211;-58
2022/10/06 04:31:11;;;;;;;20.87;3.40;;;9.20;99.90;;;;;;5072795;28;20192;-58
2022/10/06 04:33:37;;;;;;;15.77;3.03;;;9.30;99.90;;;;;;5059737;28;20238;-58
2022/10/06 04:36:05;;;;;;;23.33;2.43;;;9.00;99.90;;;;;;5052905;28;20173;-58
2022/10/06 04:38:36;;;;;;;15.83;2.67;;;9.10;99.90;;;;;;5064236;28;20280;-58
2022/10/06 04:41:15;;;;;;;20.63;2.80;;;9.30;99.90;;;;;;5068325;28;20674;-58
2022/10/06 04:43:41;;;;;;;18.07;2.80;;;9.50;99.90;;;;;;5072279;28;20180;-58
2022/10/06 04:46:08;;;;;;;9.70;2.20;;;8.70;99.90;;;;;;5071464;28;20536;-58
2022/10/06 04:48:34;;;;;;;15.80;3.00;;;9.10;99.90;;;;;;5072217;28;20243;-57
2022/10/06 04:51:05;;;;;;;22.67;2.57;;;8.90;99.90;;;;;;5071051;28;20215;-58
2022/10/06 04:53:31;;;;;;;15.03;2.33;;;9.10;99.90;;;;;;5060084;28;20177;-58
2022/10/06 04:56:01;;;;;;;17.30;2.30;;;8.90;99.90;;;;;;5070596;28;20173;-58
2022/10/06 04:58:38;;;;;;;12.60;2.07;;;8.70;99.90;;;;;;5053184;28;20392;-58
2022/10/06 05:01:14;;;;;;;23.73;2.30;;;8.90;99.90;;;;;;5052412;28;20181;-59
2022/10/06 05:03:40;;;;;;;16.17;1.63;;;;;;;;;;5052417;28;20260;-58
2022/10/06 05:06:10;;;;;;;21.10;2.27;;;8.90;99.90;;;;;;5052680;28;20193;-58
2022/10/06 05:08:36;;;;;;;16.57;2.07;;;9.10;99.90;;;;;;5055116;28;20257;-57
2022/10/06 05:11:05;;;;;;;16.20;1.90;;;9.40;99.90;;;;;;5067619;28;20165;-57
2022/10/06 05:13:31;;;;;;;12.37;2.00;;;9.50;99.90;;;;;;5052119;28;20229;-57
2022/10/06 05:15:58;;;;;;;20.97;1.93;;;10.00;99.90;;;;;;5064852;28;20177;-57
2022/10/06 05:18:24;;;;;;;22.13;2.40;;;;;;;;;;5064677;28;20199;-57
2022/10/06 05:20:57;;;;;;;21.13;2.40;;;10.30;99.90;;;;;;5067265;28;20686;-57
2022/10/06 05:23:24;;;;;;;13.40;2.40;;;10.50;99.90;;;;;;5071589;28;20229;-58
2022/10/06 05:25:55;;;;;;;19.63;2.40;;;10.80;99.90;;;;;;5071780;28;20212;-58
2022/10/06 05:28:22;;;;;;;15.27;2.37;;;10.80;99.90;;;;;;5070804;28;20212;-58
2022/10/06 05:30:56;;;;;;;24.70;3.10;;;10.60;99.90;;;;;;5071451;28;20176;-59
2022/10/06 05:33:21;;;;;;;31.07;3.30;;;10.50;99.90;;;;;;5055959;28;20223;-57
2022/10/06 05:35:58;;;;;;;21.33;2.10;;;10.80;99.90;;;;;;5071593;28;20647;-57
2022/10/06 05:38:24;;;;;;;13.23;2.33;;;11.00;99.90;;;;;;5064843;28;20263;-58
2022/10/06 05:40:50;;;;;;;26.30;2.57;;;11.10;99.90;;;;;;5051192;28;20177;-57
2022/10/06 05:43:17;;;;;;;16.63;1.53;;;10.90;99.90;;;;;;5062919;28;20177;-58
2022/10/06 05:45:57;;;;;;;24.17;4.17;;;10.60;99.90;;;;;;5064893;28;20638;-58
2022/10/06 05:48:23;;;;;;;25.57;2.43;;;10.90;99.90;;;;;;5059702;28;20703;-57
2022/10/06 05:50:57;;;;;;;28.27;3.17;;;10.90;99.90;;;;;;5051292;28;20242;-58
2022/10/06 05:53:23;;;;;;;17.03;2.63;;;10.80;99.90;;;;;;5061677;28;20176;-58
2022/10/06 05:55:48;;;;;;;17.63;2.40;;;10.70;99.90;;;;;;5069670;28;20298;-58
2022/10/06 05:58:14;;;;;;;23.33;2.47;;;11.40;99.90;;;;;;5068158;28;20177;-58
2022/10/06 06:00:40;;;;;;;19.17;2.77;;;;;;;;;;5051078;28;20165;-58
2022/10/06 06:03:09;;;;;;;26.63;2.60;;;11.00;99.90;;;;;;5051181;28;20837;-58
2022/10/06 06:05:40;;;;;;;23.30;3.20;;;11.00;99.90;;;;;;5050724;28;20188;-58
2022/10/06 06:08:06;;;;;;;17.63;2.03;;;11.10;99.90;;;;;;5068472;28;20274;-58
2022/10/06 06:10:31;;;;;;;23.60;2.73;;;11.00;99.90;;;;;;5071052;28;20254;-58
2022/10/06 06:12:57;;;;;;;22.37;2.40;;;;;;;;;;5061197;28;20232;-58
2022/10/06 06:16:05;;;;;;;26.70;2.97;;;10.80;99.90;;;;;;5063155;28;20176;-58
2022/10/06 06:18:12;;;;;;;19.83;2.40;;;11.10;99.90;;;;;;5049834;28;20196;-58
2022/10/06 06:20:38;;;;;;;23.33;3.43;;;11.10;99.90;;;;;;5053311;28;20204;-57
2022/10/06 06:23:04;;;;;;;18.83;2.77;;;;;;;;;;5055633;28;20253;-58
2022/10/06 06:25:29;;;;;;;20.83;2.73;;;11.60;99.90;;;;;;5062300;28;20173;-57
2022/10/06 06:27:55;;;;;;;18.40;2.23;;;11.40;99.90;;;;;;5063911;28;20303;-60
2022/10/06 06:30:22;;;;;;;26.27;2.70;;;11.40;99.90;;;;;;5061611;28;20184;-60
2022/10/06 06:32:48;;;;;;;22.30;2.80;;;11.40;99.90;;;;;;5056895;28;20169;-60
2022/10/06 06:35:14;;;;;;;20.47;2.60;;;11.40;99.90;;;;;;5057913;28;20189;-60
2022/10/06 06:37:40;;;;;;;19.03;2.43;;;11.60;99.90;;;;;;5070028;28;20546;-60
2022/10/06 06:40:06;;;;;;;17.37;2.57;;;11.80;99.90;;;;;;5070174;28;20180;-60
2022/10/06 06:42:31;;;;;;;30.17;3.40;;;11.60;99.90;;;;;;5070365;28;20181;-60
2022/10/06 06:44:57;;;;;;;21.83;3.17;;;11.90;99.90;;;;;;5070752;28;20225;-60
2022/10/06 06:47:24;;;;;;;20.40;2.77;;;;;;;;;;5068632;28;20211;-60
2022/10/06 06:49:50;;;;;;;17.97;2.33;;;11.70;99.90;;;;;;5069611;28;20184;-60
2022/10/06 06:52:16;;;;;;;32.53;3.10;;;11.70;99.90;;;;;;5063196;28;20187;-61
2022/10/06 06:54:41;;;;;;;12.77;2.10;;;11.70;99.90;;;;;;5049554;28;20177;-62
2022/10/06 06:57:07;;;;;;;26.40;2.63;;;11.70;99.90;;;;;;5065155;28;20180;-61
2022/10/06 06:59:33;;;;;;;22.07;3.20;;;11.70;99.90;;;;;;5072167;28;20220;-61
2022/10/06 07:01:59;;;;;;;21.57;2.53;;;;;;;;;;5074478;28;20176;-61
2022/10/06 07:04:25;;;;;;;21.10;2.50;;;11.80;99.90;;;;;;5089828;28;20160;-62
2022/10/06 07:06:57;;;;;;;21.70;2.57;;;11.90;99.90;;;;;;5073993;28;20172;-61
2022/10/06 07:09:24;;;;;;;23.63;2.60;;;11.80;99.90;;;;;;5074103;28;20820;-62
2022/10/06 07:11:51;;;;;;;25.23;2.63;;;;;;;;;;5072749;28;20228;-62
2022/10/06 07:14:17;;;;;;;19.13;2.43;;;12.40;99.90;;;;;;5072427;28;20176;-62
2022/10/06 07:25:11;;;;;;;24.97;3.30;;;12.50;99.90;;;;;;5074410;28;20769;-62
2022/10/06 07:27:43;;;;;;;26.73;3.10;;;13.00;99.90;;;;;;5073333;28;20561;-61
2022/10/06 07:30:18;;;;;;;22.93;3.13;;;12.90;99.90;;;;;;5074159;28;20260;-62
2022/10/06 07:32:44;;;;;;;23.23;3.13;;;12.80;99.90;;;;;;5073273;28;20194;-61
2022/10/06 07:35:11;;;;;;;22.40;2.30;;;12.70;99.90;;;;;;5073280;28;20183;-61
2022/10/06 07:37:37;;;;;;;23.43;3.07;;;;;;;;;;5072962;28;20266;-61
2022/10/06 07:40:06;;;;;;;25.73;3.03;;;13.30;99.90;;;;;;5072718;28;20172;-61
2022/10/06 07:45:37;;;;;;;21.93;2.93;;;13.20;99.90;;;;;;5048764;28;20280;-61
2022/10/06 07:48:05;;;;;;;22.87;3.03;;;13.40;99.90;;;;;;5052191;28;20687;-61
2022/10/06 07:50:31;;;;;;;22.80;3.10;;;;;;;;;;5052845;28;20178;-61
2022/10/06 07:53:07;;;;;;;23.23;3.13;;;;;;;;;;5053652;28;20226;-63
2022/10/06 07:55:38;;;;;;;21.47;3.40;;;13.60;99.90;;;;;;5063495;28;20206;-62
2022/10/06 07:58:09;;;;;;;20.70;3.10;;;13.80;99.90;;;;;;5073666;28;21037;-62
2022/10/06 08:00:35;;;;;;;20.13;2.70;;;13.80;99.90;;;;;;5069489;28;20177;-62
2022/10/06 08:03:00;;;;;;;21.77;2.90;;;14.00;99.90;;;;;;5061088;28;20225;-62
2022/10/06 08:05:26;;;;;;;21.30;3.00;;;13.90;99.90;;;;;;5073233;28;20631;-61
2022/10/06 08:07:52;;;;;;;26.03;3.13;;;13.90;99.90;;;;;;5072593;28;20690;-61
2022/10/06 08:10:19;;;;;;;22.70;3.27;;;;;;;;;;5073318;28;20184;-62
2022/10/06 08:12:45;;;;;;;27.65;4.13;;;14.30;99.90;;;;;;5073206;28;20854;-62
2022/10/06 08:15:13;;;;;;;23.43;3.23;;;14.10;99.90;;;;;;5071133;28;20173;-61
2022/10/06 08:17:39;;;;;;;19.05;2.80;;;14.10;99.90;;;;;;5073175;28;20259;-61
2022/10/06 08:20:08;;;;;;;24.37;2.67;;;14.80;99.90;;;;;;5072888;28;20256;-60
2022/10/06 08:22:35;;;;;;;21.67;3.08;;;;;;;;;;5071872;28;20587;-59
2022/10/06 08:25:01;;;;;;;30.80;3.27;;;15.40;99.90;;;;;;5072915;28;20188;-60
2022/10/06 08:27:28;;;;;;;25.37;3.53;;;14.60;99.90;;;;;;5070815;28;20176;-60
2022/10/06 08:29:54;;;;;;;13.02;2.67;;;15.00;99.90;;;;;;5072100;28;20645;-60
2022/10/06 08:32:23;;;;;;;23.52;3.50;;;14.90;99.90;;;;;;5072594;28;20181;-60
2022/10/06 08:34:49;;;;;;;14.05;2.65;;;15.70;99.90;;;;;;5072703;28;20172;-60
2022/10/06 08:37:16;;;;;;;23.73;3.33;;;15.20;99.90;;;;;;5072770;28;20218;-60
2022/10/06 08:39:42;;;;;;;28.02;3.25;;;14.80;99.90;;;;;;5072564;28;20230;-59
2022/10/06 08:42:19;;;;;;;15.38;2.38;;;14.90;99.90;;;;;;5066534;28;20667;-60
2022/10/06 08:44:53;;;;;;;27.58;3.05;;;15.10;99.90;;;;;;5052637;28;20635;-60
2022/10/06 08:47:21;;;;;;;15.88;2.55;;;15.00;99.90;;;;;;5052766;28;20235;-59
2022/10/06 08:49:53;;;;;;;16.50;2.53;;;15.10;99.90;;;;;;5051256;28;20303;-60
2022/10/06 08:52:42;;;;;;;21.17;3.40;;;15.00;99.90;;;;;;5066766;28;20169;-60
2022/10/06 08:55:25;;;;;;;21.45;2.90;;;14.90;99.90;;;;;;5052267;28;20632;-59
2022/10/06 08:58:38;;;;;;;19.90;2.53;;;15.00;99.90;;;;;;5063615;28;20234;-59
2022/10/06 09:01:08;;;;;;;29.30;3.28;;;14.70;99.90;;;;;;5058658;28;20192;-60
2022/10/06 09:03:36;;;;;;;14.23;1.77;;;14.50;99.90;;;;;;5052602;28;20181;-60
2022/10/06 09:06:25;;;;;;;16.23;2.50;;;14.80;99.90;;;;;;5052430;28;20871;-60
2022/10/06 09:08:56;;;;;;;26.73;2.67;;;14.90;99.90;;;;;;5052316;28;20227;-60
2022/10/06 09:11:38;;;;;;;21.25;2.00;;;15.10;99.90;;;;;;5054635;28;20212;-60
2022/10/06 09:14:16;;;;;;;21.08;2.63;;;15.00;99.90;;;;;;5061636;28;20211;-60
2022/10/06 09:16:47;;;;;;;21.33;2.50;;;14.60;99.90;;;;;;5072216;28;20182;-60
2022/10/06 09:19:39;;;;;;;24.27;2.70;;;15.20;99.90;;;;;;5066272;28;20173;-60
2022/10/06 09:22:14;;;;;;;20.67;2.83;;;15.20;99.90;;;;;;5051330;28;20192;-60
2022/10/06 09:24:44;;;;;;;16.33;2.65;;;15.10;99.90;;;;;;5068942;28;20176;-60
2022/10/06 09:27:21;;;;;;;18.92;2.88;;;15.10;99.90;;;;;;5051247;28;20181;-60
2022/10/06 09:29:48;;;;;;;19.58;2.08;;;15.40;99.90;;;;;;5051205;28;20189;-60
2022/10/06 09:32:16;;;;;;;15.60;2.08;;;15.40;99.90;;;;;;5055482;28;20637;-60
2022/10/06 09:34:49;;;;;;;27.45;3.10;;;15.40;99.90;;;;;;5068213;28;20218;-60
2022/10/06 09:37:14;;;;;;;21.85;2.70;;;15.70;99.90;;;;;;5071776;28;20164;-60
2022/10/06 09:39:48;;;;;;;16.33;2.97;;;15.60;99.90;;;;;;5071205;28;20639;-60
2022/10/06 09:42:25;;;;;;;19.27;2.60;;;15.80;99.90;;;;;;5068262;28;20212;-60
2022/10/06 09:44:51;;;;;;;19.17;2.30;;;;;;;;;;5060599;28;20175;-60
2022/10/06 09:47:35;;;;;;;14.27;2.30;;;16.20;99.90;;;;;;5066627;28;20176;-64
2022/10/06 09:50:15;;;;;;;21.40;3.45;;;16.50;99.90;;;;;;5061011;28;20271;-60
2022/10/06 09:53:02;;;;;;;17.10;2.60;;;16.50;99.90;;;;;;5069402;28;20219;-60
2022/10/06 09:55:37;;;;;;;10.57;1.88;;;16.30;99.90;;;;;;5058881;28;20308;-60
2022/10/06 09:58:20;;;;;;;17.70;2.00;;;16.60;99.90;;;;;;5066036;28;20180;-60
2022/10/06 10:00:56;;;;;;;19.75;3.15;;;16.90;99.90;;;;;;5070441;28;20203;-60
2022/10/06 10:03:26;;;;;;;23.63;3.30;;;16.80;99.90;;;;;;5070915;28;20168;-60
2022/10/06 10:05:54;;;;;;;20.67;2.83;;;16.90;99.90;;;;;;5071095;28;20238;-60
2022/10/06 10:08:29;;;;;;;21.83;2.30;;;17.40;99.90;;;;;;5071011;28;20224;-59
2022/10/06 10:11:07;;;;;;;18.13;2.83;;;17.60;99.90;;;;;;5070375;28;20284;-60
2022/10/06 10:13:42;;;;;;;15.20;2.55;;;18.00;99.90;;;;;;5071012;28;20251;-60
2022/10/06 10:16:15;;;;;;;12.52;2.03;;;18.20;99.90;;;;;;5071205;28;20187;-60
2022/10/06 10:18:45;;;;;;;14.07;2.42;;;18.30;99.90;;;;;;5067466;28;20247;-59
2022/10/06 10:21:23;;;;;;;22.10;3.30;;;18.40;99.90;;;;;;5064677;28;20316;-59
2022/10/06 10:23:58;;;;;;;12.02;2.25;;;20.20;99.90;;;;;;5070823;28;20164;-60
2022/10/06 10:27:04;;;;;;;16.98;2.33;;;19.20;99.90;;;;;;5070678;28;20206;-60
2022/10/06 10:29:57;;;;;;;27.13;3.20;;;18.50;99.90;;;;;;5008338;28;20216;-60
2022/10/06 10:32:45;;;;;;;18.48;2.28;;;19.20;99.90;;;;;;5070366;28;20211;-60
2022/10/06 10:35:31;;;;;;;15.77;2.38;;;19.00;99.90;;;;;;5069232;28;20227;-59
2022/10/06 10:38:07;;;;;;;9.88;1.77;;;19.10;99.90;;;;;;5066893;28;20176;-60
2022/10/06 10:40:38;;;;;;;14.18;2.40;;;19.30;99.90;;;;;;5050716;28;20234;-58
2022/10/06 10:43:18;;;;;;;16.67;3.50;;;19.60;99.90;;;;;;5058861;28;20172;-59
2022/10/06 10:45:55;;;;;;;12.43;2.47;;;19.80;99.90;;;;;;5070743;28;20168;-60
2022/10/06 10:48:33;;;;;;;15.95;2.30;;;19.50;99.90;;;;;;5069777;28;20204;-59
2022/10/06 10:51:08;;;;;;;14.02;2.25;;;19.30;99.90;;;;;;5070226;28;20252;-59
2022/10/06 10:53:47;;;;;;;17.33;2.50;;;19.90;99.90;;;;;;5070517;28;20168;-58
2022/10/06 10:56:15;;;;;;;17.80;2.55;;;20.10;99.90;;;;;;5069046;28;20168;-60
2022/10/06 10:58:44;;;;;;;18.83;2.20;;;19.80;99.90;;;;;;5053192;28;20177;-59
2022/10/06 11:01:31;;;;;;;24.95;3.33;;;19.50;99.90;;;;;;5051254;28;20165;-59
2022/10/06 11:03:58;;;;;;;14.35;2.65;;;22.90;99.90;;;;;;5063276;28;20274;-59
2022/10/06 11:06:59;;;;;;;17.17;2.38;;;22.70;99.90;;;;;;5067619;28;20192;-59
2022/10/06 11:10:06;;;;;;;12.00;2.20;;;23.70;99.90;;;;;;4949711;29;20250;-59
2022/10/06 11:12:56;;;;;;;14.82;2.35;;;24.80;99.90;;;;;;4969228;28;20231;-59
2022/10/06 11:15:43;;;;;;;14.05;2.33;;;25.20;99.90;;;;;;5050448;28;20173;-59
2022/10/06 11:18:29;;;;;;;12.32;1.77;;;25.40;99.90;;;;;;5050208;28;20256;-59
2022/10/06 11:21:02;;;;;;;8.82;1.73;;;24.70;99.90;;;;;;5050205;28;20257;-60
2022/10/06 11:23:37;;;;;;;10.63;2.30;;;24.30;99.90;;;;;;5049068;28;20191;-59
2022/10/06 11:26:15;;;;;;;20.48;2.75;;;24.40;99.90;;;;;;5054167;28;20189;-59
2022/10/06 11:28:48;;;;;;;14.18;2.25;;;23.90;99.90;;;;;;5063401;28;20687;-59
2022/10/06 11:31:25;;;;;;;12.80;2.90;;;24.10;99.90;;;;;;5070100;28;20177;-59
2022/10/06 11:33:57;;;;;;;12.43;2.63;;;25.50;99.90;;;;;;5059252;28;20188;-59
2022/10/06 11:37:01;;;;;;;11.65;2.05;;;25.20;99.90;;;;;;5054872;28;20173;-59
2022/10/06 11:39:32;;;;;;;10.68;2.05;;;25.60;99.90;;;;;;5059946;28;20254;-59
2022/10/06 11:42:22;;;;;;;10.30;2.60;;;25.60;99.90;;;;;;5065764;28;20652;-59
2022/10/06 11:45:02;;;;;;;9.88;2.65;;;25.40;99.90;;;;;;5058343;28;20184;-59
2022/10/06 11:47:34;;;;;;;7.03;1.92;;;26.30;99.90;;;;;;5061736;28;20184;-59
2022/10/06 11:50:01;;;;;;;15.52;2.22;;;;;;;;;;5057048;28;20652;-59
2022/10/06 11:52:27;;;;;;;12.23;2.83;;;25.70;99.90;;;;;;5070816;28;20177;-59
2022/10/06 11:55:07;;;;;;;12.43;2.42;;;25.90;99.90;;;;;;5061127;28;20202;-59
2022/10/06 11:57:34;;;;;;;7.80;1.65;;;24.70;99.90;;;;;;5057776;28;20169;-59
2022/10/06 12:00:14;;;;;;;11.60;2.38;;;25.10;99.90;;;;;;5071543;28;20230;-57
2022/10/06 12:02:41;;;;;;;10.07;2.28;;;24.90;99.90;;;;;;5069044;28;20195;-58
2022/10/06 12:05:13;;;;;;;10.68;2.22;;;25.60;99.90;;;;;;5072101;28;20635;-58
2022/10/06 12:07:51;;;;;;;12.52;2.50;;;25.40;99.90;;;;;;5071461;28;20169;-58
2022/10/06 12:10:30;;;;;;;12.40;2.25;;;25.00;99.90;;;;;;5071365;28;20257;-58
2022/10/06 12:13:15;;;;;;;12.50;2.75;;;25.60;99.90;;;;;;5071701;28;20220;-58
2022/10/06 12:15:55;;;;;;;10.07;2.08;;;25.40;99.90;;;;;;5073301;28;20180;-58
2022/10/06 12:18:43;;;;;;;6.82;1.90;;;25.00;99.90;;;;;;5073271;28;20263;-58
2022/10/06 12:21:22;;;;;;;13.43;2.50;;;23.10;99.90;;;;;;5073074;28;20172;-57
2022/10/06 12:24:26;;;;;;;11.93;2.30;;;21.50;99.90;;;;;;5073243;28;20230;-58
2022/10/06 12:27:10;;;;;;;13.60;2.00;;;20.70;99.90;;;;;;5066340;28;20176;-57
2022/10/06 12:29:42;;;;;;;13.05;2.17;;;20.40;99.90;;;;;;5072810;28;20265;-57
2022/10/06 12:32:11;;;;;;;10.02;1.98;;;20.50;99.90;;;;;;5072926;28;20172;-57
2022/10/06 12:34:42;;;;;;;14.02;2.53;;;20.90;99.90;;;;;;5073018;28;20176;-57
2022/10/06 12:37:29;;;;;;;17.60;2.40;;;21.70;99.90;;;;;;5072978;28;20187;-58
2022/10/06 12:40:32;;;;;;;18.08;2.20;;;22.00;99.90;;;;;;5071423;28;20267;-58
2022/10/06 12:43:21;;;;;;;9.20;2.40;;;21.50;99.90;;;;;;5072299;28;20165;-58
2022/10/06 12:45:53;;;;;;;13.85;2.30;;;20.70;99.90;;;;;;5072163;28;20176;-58
2022/10/06 12:48:25;;;;;;;11.60;2.15;;;20.20;99.90;;;;;;5072513;28;20236;-57
2022/10/06 12:51:17;;;;;;;11.85;1.92;;;20.30;99.90;;;;;;5072716;28;20165;-57
2022/10/06 12:53:48;;;;;;;14.60;2.75;;;22.10;99.90;;;;;;5064641;28;20507;-57
2022/10/06 12:56:31;;;;;;;9.10;1.65;;;22.90;99.90;;;;;;5072438;28;20172;-58
2022/10/06 12:58:57;;;;;;;8.65;1.85;;;22.40;99.90;;;;;;5072559;28;20263;-58
2022/10/06 13:01:26;;;;;;;16.48;2.58;;;22.20;99.90;;;;;;5072703;28;20255;-58
2022/10/06 13:03:52;;;;;;;12.02;2.20;;;23.80;99.90;;;;;;5070706;28;20246;-58
2022/10/06 13:06:23;;;;;;;10.88;2.10;;;23.70;99.90;;;;;;5072374;28;20168;-58
2022/10/06 13:09:11;;;;;;;4.78;1.50;;;21.20;99.90;;;;;;5072286;28;20602;-58
2022/10/06 13:11:37;;;;;;;13.35;2.75;;;21.70;99.90;;;;;;5072226;28;20177;-58
2022/10/06 13:14:12;;;;;;;11.38;2.00;;;22.70;99.90;;;;;;5072296;28;20222;-58
2022/10/06 13:16:44;;;;;;;15.95;2.58;;;23.00;99.90;;;;;;5072037;28;20254;-61
2022/10/06 13:19:18;;;;;;;10.65;2.28;;;24.80;99.90;;;;;;5070376;28;20563;-61